createdAt,value
2022-08-30T00:00:03.776Z,31.60
2022-08-30T00:02:32.291Z,31.60
2022-08-30T00:05:02.456Z,31.80
2022-08-30T00:07:31.563Z,31.80
2022-08-30T00:10:00.063Z,31.90
2022-08-30T00:12:29.280Z,31.90
2022-08-30T00:14:57.647Z,31.80
2022-08-30T00:17:26.040Z,31.80
2022-08-30T00:19:54.505Z,31.70
2022-08-30T00:22:23.278Z,31.60
2022-08-30T00:24:51.766Z,31.60
2022-08-30T00:27:20.541Z,31.50
2022-08-30T00:29:48.978Z,31.60
2022-08-30T00:32:17.394Z,31.50
2022-08-30T00:34:45.743Z,31.40
2022-08-30T00:37:14.115Z,31.30
2022-08-30T00:39:42.662Z,31.20
2022-08-30T00:42:11.601Z,31.30
2022-08-30T00:44:41.115Z,31.10
2022-08-30T00:47:11.452Z,31.10
2022-08-30T00:49:43.504Z,31.10
2022-08-30T00:52:13.835Z,31.00
2022-08-30T00:54:46.335Z,31.10
2022-08-30T00:57:15.959Z,31.00
2022-08-30T00:59:47.620Z,30.90
2022-08-30T01:02:18.432Z,30.90
2022-08-30T01:04:47.612Z,30.90
2022-08-30T01:07:17.551Z,30.90
2022-08-30T01:09:46.362Z,30.80
2022-08-30T01:12:15.026Z,30.80
2022-08-30T01:14:46.613Z,30.70
2022-08-30T01:17:16.719Z,30.70
2022-08-30T01:20:04.138Z,30.80
2022-08-30T01:23:04.972Z,30.90
2022-08-30T01:25:35.726Z,30.90
2022-08-30T01:28:07.868Z,30.80
2022-08-30T01:30:39.859Z,30.90
2022-08-30T01:33:09.663Z,30.80
2022-08-30T01:36:00.574Z,30.70
2022-08-30T01:38:34.763Z,30.70
2022-08-30T01:41:33.199Z,30.60
2022-08-30T01:44:06.737Z,30.60
2022-08-30T01:46:42.077Z,30.60
2022-08-30T01:49:14.231Z,30.50
2022-08-30T01:51:43.110Z,30.40
2022-08-30T01:54:11.877Z,30.40
2022-08-30T01:56:40.479Z,30.40
2022-08-30T01:59:09.008Z,30.30
2022-08-30T02:01:40.413Z,30.20
2022-08-30T02:04:10.811Z,30.20
2022-08-30T02:06:40.208Z,30.30
2022-08-30T02:09:09.086Z,30.20
2022-08-30T02:11:37.520Z,30.20
2022-08-30T02:14:06.567Z,29.90
2022-08-30T02:16:35.311Z,30.00
2022-08-30T02:19:04.348Z,29.90
2022-08-30T02:21:32.898Z,30.00
2022-08-30T02:24:01.424Z,30.00
2022-08-30T02:26:29.931Z,29.90
2022-08-30T02:28:59.073Z,29.80
2022-08-30T02:31:27.935Z,29.70
2022-08-30T02:33:56.400Z,29.60
2022-08-30T02:36:25.209Z,29.60
2022-08-30T02:38:54.423Z,29.40
2022-08-30T02:41:24.506Z,29.30
2022-08-30T02:43:53.308Z,29.30
2022-08-30T02:46:21.749Z,29.20
2022-08-30T02:48:50.316Z,29.10
2022-08-30T02:51:18.740Z,29.00
2022-08-30T02:53:47.139Z,28.90
2022-08-30T02:56:16.416Z,28.80
2022-08-30T02:58:45.806Z,28.70
2022-08-30T03:01:16.640Z,28.50
2022-08-30T03:03:47.887Z,28.50
2022-08-30T03:06:16.470Z,28.40
2022-08-30T03:08:44.881Z,28.30
2022-08-30T03:11:14.753Z,28.20
2022-08-30T03:13:43.317Z,28.10
2022-08-30T03:16:12.072Z,28.00
2022-08-30T03:18:40.987Z,28.00
2022-08-30T03:21:14.258Z,28.00
2022-08-30T03:23:43.548Z,28.00
2022-08-30T03:26:15.780Z,27.80
2022-08-30T03:28:46.178Z,27.70
2022-08-30T03:31:14.594Z,27.70
2022-08-30T03:33:44.128Z,27.60
2022-08-30T03:36:13.013Z,27.50
2022-08-30T03:38:42.645Z,27.40
2022-08-30T03:41:12.284Z,27.40
2022-08-30T03:43:42.961Z,27.30
2022-08-30T03:46:13.372Z,27.20
2022-08-30T03:48:42.914Z,27.00
2022-08-30T03:51:11.698Z,27.00
2022-08-30T03:53:40.429Z,26.90
2022-08-30T03:56:08.843Z,26.90
2022-08-30T03:58:38.480Z,26.80
2022-08-30T04:01:07.149Z,26.80
2022-08-30T04:03:36.237Z,26.70
2022-08-30T04:06:05.331Z,26.60
2022-08-30T04:08:34.479Z,26.60
2022-08-30T04:11:05.017Z,26.60
2022-08-30T04:13:34.695Z,26.60
2022-08-30T04:16:03.219Z,26.50
2022-08-30T04:18:31.826Z,26.50
2022-08-30T04:21:01.345Z,26.40
2022-08-30T04:23:31.011Z,26.40
2022-08-30T04:25:59.725Z,26.30
2022-08-30T04:28:28.528Z,26.20
2022-08-30T04:30:56.915Z,26.10
2022-08-30T04:33:26.320Z,26.10
2022-08-30T04:35:55.883Z,26.00
2022-08-30T04:38:30.304Z,26.00
2022-08-30T04:40:59.991Z,26.00
2022-08-30T04:43:29.567Z,25.80
2022-08-30T04:45:58.745Z,25.70
2022-08-30T04:48:27.528Z,25.80
2022-08-30T04:50:55.904Z,25.70
2022-08-30T04:53:24.752Z,25.70
2022-08-30T04:55:53.147Z,25.60
2022-08-30T04:58:21.885Z,25.40
2022-08-30T05:00:50.272Z,25.30
2022-08-30T05:03:18.807Z,25.30
2022-08-30T05:05:53.263Z,25.10
2022-08-30T05:08:24.824Z,25.20
2022-08-30T05:10:54.492Z,25.20
2022-08-30T05:13:26.231Z,25.10
2022-08-30T05:16:05.332Z,25.20
2022-08-30T05:18:33.979Z,25.10
2022-08-30T05:21:23.416Z,24.80
2022-08-30T05:23:53.858Z,24.70
2022-08-30T05:26:25.453Z,24.50
2022-08-30T05:28:54.082Z,24.60
2022-08-30T05:31:28.388Z,24.60
2022-08-30T05:33:57.537Z,24.50
2022-08-30T05:36:29.661Z,24.50
2022-08-30T05:38:58.931Z,24.50
2022-08-30T05:41:28.047Z,24.40
2022-08-30T05:43:59.372Z,24.50
2022-08-30T05:49:05.939Z,24.50
2022-08-30T05:51:36.164Z,24.30
2022-08-30T05:54:13.386Z,24.30
2022-08-30T05:56:44.066Z,24.30
2022-08-30T05:59:13.454Z,24.30
2022-08-30T06:01:47.640Z,24.20
2022-08-30T06:04:16.418Z,24.20
2022-08-30T06:06:45.696Z,24.10
2022-08-30T06:09:15.646Z,23.90
2022-08-30T06:11:45.192Z,23.90
2022-08-30T06:14:14.250Z,23.90
2022-08-30T06:16:46.717Z,23.90
2022-08-30T06:19:16.530Z,23.80
2022-08-30T06:21:48.598Z,23.60
2022-08-30T06:24:17.203Z,23.50
2022-08-30T06:26:48.165Z,23.50
2022-08-30T06:29:20.083Z,23.60
2022-08-30T06:31:49.344Z,23.60
2022-08-30T06:34:18.484Z,23.50
2022-08-30T06:36:47.387Z,23.50
2022-08-30T06:39:16.350Z,23.40
2022-08-30T06:41:44.911Z,23.40
2022-08-30T06:44:13.366Z,23.30
2022-08-30T06:46:41.831Z,23.30
2022-08-30T06:49:10.305Z,23.30
2022-08-30T06:51:40.262Z,23.20
2022-08-30T06:54:12.150Z,23.20
2022-08-30T06:56:57.566Z,23.10
2022-08-30T06:59:27.943Z,23.00
2022-08-30T07:01:57.649Z,23.10
2022-08-30T07:04:27.117Z,23.00
2022-08-30T07:06:55.551Z,23.00
2022-08-30T07:09:24.142Z,22.90
2022-08-30T07:11:53.898Z,22.90
2022-08-30T07:14:22.738Z,22.80
2022-08-30T07:16:52.082Z,22.90
2022-08-30T07:19:21.597Z,22.90
2022-08-30T07:21:50.574Z,22.90
2022-08-30T07:24:19.592Z,22.80
2022-08-30T07:26:52.574Z,22.80
2022-08-30T07:29:22.154Z,22.80
2022-08-30T07:31:50.872Z,22.80
2022-08-30T07:34:21.464Z,22.80
2022-08-30T07:36:51.960Z,22.80
2022-08-30T07:39:20.816Z,22.80
2022-08-30T07:41:49.660Z,22.80
2022-08-30T07:44:18.887Z,22.70
2022-08-30T07:46:47.319Z,22.60
2022-08-30T07:49:15.765Z,22.50
2022-08-30T07:51:44.346Z,22.30
2022-08-30T07:54:13.292Z,22.30
2022-08-30T07:56:41.647Z,22.20
2022-08-30T07:59:10.076Z,22.20
2022-08-30T08:01:38.485Z,22.10
2022-08-30T08:04:06.956Z,22.10
2022-08-30T08:06:41.001Z,22.00
2022-08-30T08:09:10.199Z,21.80
2022-08-30T08:11:38.941Z,21.90
2022-08-30T08:14:07.426Z,21.60
2022-08-30T08:16:37.228Z,21.60
2022-08-30T08:19:09.787Z,21.50
2022-08-30T08:21:39.127Z,21.50
2022-08-30T08:24:08.223Z,21.50
2022-08-30T08:26:41.120Z,21.40
2022-08-30T08:29:13.919Z,21.30
2022-08-30T08:31:42.637Z,21.20
2022-08-30T08:34:12.442Z,21.20
2022-08-30T08:36:41.729Z,21.30
2022-08-30T08:39:11.220Z,21.20
2022-08-30T08:41:46.772Z,21.20
2022-08-30T08:44:34.849Z,21.20
2022-08-30T08:47:14.847Z,21.20
2022-08-30T08:49:47.404Z,21.00
2022-08-30T08:52:48.155Z,21.10
2022-08-30T08:55:22.082Z,21.20
2022-08-30T08:57:50.788Z,21.20
2022-08-30T09:00:19.398Z,21.20
2022-08-30T09:02:59.600Z,21.20
2022-08-30T09:05:32.540Z,21.10
2022-08-30T09:08:07.769Z,21.10
2022-08-30T09:10:54.694Z,21.10
2022-08-30T09:13:23.259Z,21.00
2022-08-30T09:15:55.157Z,21.00
2022-08-30T09:18:51.394Z,21.00
2022-08-30T09:21:26.844Z,20.70
2022-08-30T09:24:02.522Z,20.80
2022-08-30T09:26:37.732Z,20.80
2022-08-30T09:29:16.820Z,20.70
2022-08-30T09:34:45.112Z,20.50
2022-08-30T09:37:36.693Z,20.50
2022-08-30T09:40:16.579Z,20.40
2022-08-30T09:43:02.007Z,20.40
2022-08-30T09:45:34.499Z,20.30
2022-08-30T09:48:21.604Z,20.30
2022-08-30T09:51:15.399Z,20.40
2022-08-30T09:56:58.076Z,20.10
2022-08-30T10:00:03.221Z,20.00
2022-08-30T10:02:49.210Z,20.00
2022-08-30T10:05:21.613Z,20.00
2022-08-30T10:07:59.243Z,19.70
2022-08-30T10:10:45.953Z,19.80
2022-08-30T10:13:26.479Z,19.70
2022-08-30T10:16:26.712Z,19.60
2022-08-30T10:19:04.177Z,19.70
2022-08-30T10:22:07.742Z,19.70
2022-08-30T10:24:41.965Z,19.50
2022-08-30T10:27:18.912Z,19.40
2022-08-30T10:30:11.338Z,19.40
2022-08-30T10:32:49.107Z,19.60
2022-08-30T10:35:20.363Z,19.60
2022-08-30T10:38:02.523Z,19.60
2022-08-30T10:40:58.131Z,19.60
2022-08-30T10:43:34.817Z,19.60
2022-08-30T10:46:10.555Z,19.60
2022-08-30T10:48:47.354Z,19.70
2022-08-30T10:51:41.013Z,19.70
2022-08-30T10:54:41.711Z,19.60
2022-08-30T10:57:10.471Z,19.50
2022-08-30T10:59:46.087Z,19.40
2022-08-30T11:02:31.532Z,19.40
2022-08-30T11:05:25.588Z,19.30
2022-08-30T11:08:23.092Z,19.20
2022-08-30T11:11:33.731Z,19.30
2022-08-30T11:14:08.016Z,19.30
2022-08-30T11:16:43.311Z,19.40
2022-08-30T11:19:27.225Z,19.40
2022-08-30T11:22:16.143Z,19.50
2022-08-30T11:25:10.220Z,19.50
2022-08-30T11:27:47.464Z,19.40
2022-08-30T11:30:26.983Z,19.40
2022-08-30T11:33:27.200Z,18.90
2022-08-30T11:35:56.115Z,19.00
2022-08-30T11:38:27.272Z,19.10
2022-08-30T11:41:01.555Z,19.10
2022-08-30T11:43:40.928Z,19.00
2022-08-30T11:46:27.504Z,19.00
2022-08-30T11:49:29.993Z,19.00
2022-08-30T11:52:27.395Z,18.90
2022-08-30T11:55:18.267Z,18.90
2022-08-30T11:58:01.219Z,18.60
2022-08-30T12:00:34.977Z,18.60
2022-08-30T12:03:08.342Z,18.60
2022-08-30T12:05:40.339Z,18.70
2022-08-30T12:08:27.989Z,18.70
2022-08-30T12:11:01.263Z,18.50
2022-08-30T12:13:49.750Z,18.40
2022-08-30T12:16:25.624Z,18.50
2022-08-30T12:19:05.814Z,18.60
2022-08-30T12:21:44.703Z,18.30
2022-08-30T12:24:24.517Z,18.40
2022-08-30T12:26:54.285Z,18.20
2022-08-30T12:29:24.508Z,18.30
2022-08-30T12:31:58.083Z,18.40
2022-08-30T12:34:31.203Z,18.30
2022-08-30T12:37:20.553Z,18.40
2022-08-30T12:39:53.530Z,18.30
2022-08-30T12:42:26.951Z,18.30
2022-08-30T12:44:59.344Z,18.20
2022-08-30T12:47:46.298Z,18.00
2022-08-30T12:50:21.928Z,18.20
2022-08-30T12:53:11.711Z,18.10
2022-08-30T12:56:04.729Z,18.10
2022-08-30T12:58:37.968Z,18.10
2022-08-30T13:01:37.851Z,18.10
2022-08-30T13:04:27.950Z,18.10
2022-08-30T13:07:04.052Z,18.10
2022-08-30T13:09:45.038Z,18.20
2022-08-30T13:12:25.244Z,18.20
2022-08-30T13:15:09.804Z,18.20
2022-08-30T13:17:38.186Z,18.20
2022-08-30T13:20:17.863Z,18.30
2022-08-30T13:23:05.421Z,18.30
2022-08-30T13:25:34.080Z,18.20
2022-08-30T13:28:04.025Z,18.20
2022-08-30T13:30:33.548Z,18.20
2022-08-30T13:33:02.530Z,18.30
2022-08-30T13:35:32.199Z,18.30
2022-08-30T13:38:02.747Z,18.30
2022-08-30T13:40:31.347Z,18.30
2022-08-30T13:42:59.851Z,18.30
2022-08-30T13:45:43.728Z,18.30
2022-08-30T13:48:15.334Z,18.10
2022-08-30T13:50:45.897Z,18.20
2022-08-30T13:53:14.651Z,18.00
2022-08-30T13:55:44.116Z,18.20
2022-08-30T13:58:13.697Z,18.30
2022-08-30T14:00:42.402Z,18.20
2022-08-30T14:03:12.286Z,18.20
2022-08-30T14:05:57.061Z,18.30
2022-08-30T14:08:48.585Z,18.20
2022-08-30T14:11:22.553Z,18.40
2022-08-30T14:16:44.354Z,18.40
2022-08-30T14:19:13.893Z,18.50
2022-08-30T14:21:43.093Z,18.60
2022-08-30T14:24:13.088Z,18.70
2022-08-30T14:26:46.122Z,18.90
2022-08-30T14:29:18.096Z,18.90
2022-08-30T14:31:46.975Z,19.00
2022-08-30T14:34:16.337Z,19.10
2022-08-30T14:36:46.779Z,19.20
2022-08-30T14:39:18.845Z,19.20
2022-08-30T14:41:50.561Z,19.50
2022-08-30T14:44:20.250Z,19.60
2022-08-30T14:46:51.043Z,19.70
2022-08-30T14:49:23.826Z,19.80
2022-08-30T14:51:53.297Z,20.00
2022-08-30T14:54:27.550Z,20.20
2022-08-30T14:56:56.864Z,20.40
2022-08-30T14:59:26.421Z,20.50
2022-08-30T15:01:56.159Z,20.80
2022-08-30T15:04:24.715Z,20.90
2022-08-30T15:06:53.886Z,21.10
2022-08-30T15:09:24.838Z,21.30
2022-08-30T15:11:58.984Z,21.40
2022-08-30T15:14:28.179Z,21.60
2022-08-30T15:16:57.211Z,21.60
2022-08-30T15:19:26.532Z,21.60
2022-08-30T15:21:55.609Z,21.70
2022-08-30T15:24:29.832Z,21.90
2022-08-30T15:26:59.834Z,22.00
2022-08-30T15:29:30.417Z,22.20
2022-08-30T15:32:01.207Z,22.10
2022-08-30T15:34:31.006Z,22.20
2022-08-30T15:36:59.773Z,22.30
2022-08-30T15:39:29.175Z,22.60
2022-08-30T15:42:00.915Z,22.80
2022-08-30T15:44:32.170Z,23.10
2022-08-30T15:47:04.654Z,23.50
2022-08-30T15:49:33.663Z,23.90
2022-08-30T15:52:05.503Z,24.50
2022-08-30T15:54:37.042Z,25.10
2022-08-30T15:57:15.481Z,26.00
2022-08-30T15:59:45.060Z,27.80
2022-08-30T16:02:14.275Z,29.00
2022-08-30T16:04:46.451Z,29.90
2022-08-30T16:07:15.630Z,30.30
2022-08-30T16:09:44.666Z,30.60
2022-08-30T16:12:22.312Z,31.10
2022-08-30T16:14:52.849Z,33.40
2022-08-30T16:17:21.443Z,33.60
2022-08-30T16:19:54.634Z,33.40
2022-08-30T16:22:27.244Z,33.20
2022-08-30T16:24:55.598Z,33.10
2022-08-30T16:27:25.782Z,33.80
2022-08-30T16:29:54.216Z,33.30
2022-08-30T16:32:23.067Z,32.60
2022-08-30T16:34:52.055Z,31.80
2022-08-30T16:37:21.541Z,31.20
2022-08-30T16:39:49.991Z,30.70
2022-08-30T16:42:20.961Z,29.90
2022-08-30T16:44:50.455Z,29.80
2022-08-30T16:47:22.130Z,28.80
2022-08-30T16:49:51.369Z,27.90
2022-08-30T16:52:21.063Z,28.10
2022-08-30T16:54:52.043Z,28.10
2022-08-30T16:57:22.119Z,28.20
2022-08-30T16:59:52.426Z,28.10
2022-08-30T17:02:21.386Z,28.80
2022-08-30T17:04:52.893Z,29.90
2022-08-30T17:07:22.587Z,31.60
2022-08-30T17:09:52.433Z,32.50
2022-08-30T17:12:21.324Z,32.00
2022-08-30T17:14:50.864Z,32.10
2022-08-30T17:17:22.073Z,31.70
2022-08-30T17:19:50.607Z,31.80
2022-08-30T17:22:19.509Z,31.20
2022-08-30T17:24:51.048Z,31.40
2022-08-30T17:27:21.088Z,32.30
2022-08-30T17:29:49.630Z,32.00
2022-08-30T17:32:19.468Z,31.40
2022-08-30T17:34:49.119Z,30.60
2022-08-30T17:37:21.175Z,30.50
2022-08-30T17:39:50.299Z,30.00
2022-08-30T17:42:19.838Z,29.40
2022-08-30T17:44:49.383Z,29.00
2022-08-30T17:47:17.760Z,28.30
2022-08-30T17:49:49.103Z,28.20
2022-08-30T17:52:17.539Z,27.90
2022-08-30T17:54:47.048Z,28.00
2022-08-30T17:57:16.618Z,28.00
2022-08-30T17:59:46.132Z,27.60
2022-08-30T18:02:16.998Z,27.70
2022-08-30T18:04:51.344Z,27.90
2022-08-30T18:07:22.027Z,27.60
2022-08-30T18:09:50.613Z,27.30
2022-08-30T18:12:20.155Z,27.40
2022-08-30T18:14:52.568Z,27.30
2022-08-30T18:17:22.027Z,27.30
2022-08-30T18:19:50.424Z,27.40
2022-08-30T18:22:19.847Z,27.60
2022-08-30T18:24:48.290Z,27.50
2022-08-30T18:27:17.819Z,27.40
2022-08-30T18:29:46.235Z,27.80
2022-08-30T18:32:15.848Z,27.90
2022-08-30T18:34:44.697Z,27.80
2022-08-30T18:37:16.899Z,27.90
2022-08-30T18:39:45.455Z,28.00
2022-08-30T18:42:16.161Z,28.00
2022-08-30T18:44:45.834Z,27.80
2022-08-30T18:47:15.417Z,27.80
2022-08-30T18:49:45.709Z,27.80
2022-08-30T18:52:14.852Z,27.80
2022-08-30T18:54:52.338Z,27.90
2022-08-30T18:57:23.244Z,27.90
2022-08-30T18:59:53.206Z,27.90
2022-08-30T19:02:27.663Z,28.10
2022-08-30T19:04:56.449Z,28.30
2022-08-30T19:07:29.932Z,28.30
2022-08-30T19:10:03.352Z,28.30
2022-08-30T19:12:32.201Z,28.50
2022-08-30T19:15:00.578Z,28.80
2022-08-30T19:17:29.867Z,28.60
2022-08-30T19:19:58.250Z,28.70
2022-08-30T19:22:36.083Z,28.80
2022-08-30T19:25:19.554Z,28.90
2022-08-30T19:27:49.582Z,28.80
2022-08-30T19:30:28.865Z,28.80
2022-08-30T19:32:59.404Z,28.90
2022-08-30T19:35:30.189Z,29.10
2022-08-30T19:38:00.876Z,29.40
2022-08-30T19:40:29.697Z,29.60
2022-08-30T19:43:00.006Z,29.70
2022-08-30T19:45:28.399Z,29.80
2022-08-30T19:47:58.584Z,30.00
2022-08-30T19:50:27.428Z,30.30
2022-08-30T19:52:56.763Z,30.20
2022-08-30T19:55:30.011Z,30.30
2022-08-30T19:57:59.843Z,30.40
2022-08-30T20:00:31.101Z,30.60
2022-08-30T20:03:01.593Z,30.70
2022-08-30T20:05:31.248Z,30.80
2022-08-30T20:08:00.225Z,30.70
2022-08-30T20:10:28.696Z,30.60
2022-08-30T20:12:57.219Z,30.80
2022-08-30T20:15:26.520Z,30.90
2022-08-30T20:18:13.557Z,30.80
2022-08-30T20:20:48.564Z,30.70
2022-08-30T20:23:19.726Z,30.70
2022-08-30T20:25:51.962Z,30.90
2022-08-30T20:28:21.783Z,31.10
2022-08-30T20:30:50.646Z,31.30
2022-08-30T20:33:20.888Z,31.30
2022-08-30T20:35:50.233Z,31.40
2022-08-30T20:38:24.644Z,31.50
2022-08-30T20:40:58.028Z,31.40
2022-08-30T20:43:29.751Z,31.50
2022-08-30T20:45:58.353Z,31.70
2022-08-30T20:48:29.578Z,31.90
2022-08-30T20:50:57.996Z,31.80
2022-08-30T20:53:26.354Z,32.00
2022-08-30T20:55:55.020Z,32.00
2022-08-30T20:58:23.512Z,32.10
2022-08-30T21:00:55.367Z,32.10
2022-08-30T21:03:26.289Z,32.10
2022-08-30T21:05:57.492Z,32.20
2022-08-30T21:08:26.256Z,32.30
2022-08-30T21:10:55.380Z,32.40
2022-08-30T21:13:23.966Z,32.40
2022-08-30T21:15:54.797Z,32.60
2022-08-30T21:18:24.309Z,32.50
2022-08-30T21:20:52.675Z,32.50
2022-08-30T21:23:21.071Z,32.60
2022-08-30T21:25:49.617Z,32.70
2022-08-30T21:28:18.804Z,32.80
2022-08-30T21:30:47.420Z,32.80
2022-08-30T21:33:15.886Z,32.90
2022-08-30T21:36:02.699Z,32.90
2022-08-30T21:38:31.169Z,32.90
2022-08-30T21:40:59.628Z,33.00
2022-08-30T21:43:28.115Z,33.00
2022-08-30T21:45:56.480Z,33.10
2022-08-30T21:48:24.879Z,33.30
2022-08-30T21:50:56.033Z,33.20
2022-08-30T21:53:24.427Z,33.40
2022-08-30T21:55:52.816Z,33.40
2022-08-30T21:58:21.366Z,33.30
2022-08-30T22:00:49.746Z,33.30
2022-08-30T22:03:18.295Z,33.40
2022-08-30T22:05:53.095Z,33.40
2022-08-30T22:08:21.443Z,33.50
2022-08-30T22:10:49.860Z,33.50
2022-08-30T22:13:18.367Z,33.60
2022-08-30T22:15:46.930Z,33.60
2022-08-30T22:18:15.293Z,33.60
2022-08-30T22:20:44.410Z,33.60
2022-08-30T22:23:15.847Z,33.90
2022-08-30T22:25:47.821Z,33.80
2022-08-30T22:28:16.172Z,33.90
2022-08-30T22:30:44.588Z,33.90
2022-08-30T22:33:13.838Z,33.90
2022-08-30T22:35:42.532Z,33.80
2022-08-30T22:38:12.116Z,33.90
2022-08-30T22:40:47.393Z,33.80
2022-08-30T22:43:17.143Z,33.80
2022-08-30T22:45:46.332Z,34.10
2022-08-30T22:48:15.766Z,34.20
2022-08-30T22:50:44.318Z,34.10
2022-08-30T22:53:12.692Z,34.20
2022-08-30T22:55:42.162Z,34.20
2022-08-30T22:58:10.573Z,34.30
2022-08-30T23:00:49.722Z,34.40
2022-08-30T23:03:23.827Z,34.50
2022-08-30T23:05:52.214Z,34.60
2022-08-30T23:08:20.611Z,34.60
2022-08-30T23:10:49.008Z,34.70
2022-08-30T23:13:17.629Z,34.80
2022-08-30T23:15:46.132Z,34.70
2022-08-30T23:18:14.508Z,34.80
2022-08-30T23:20:42.997Z,34.90
2022-08-30T23:23:11.235Z,35.00
2022-08-30T23:25:59.760Z,34.90
2022-08-30T23:28:46.621Z,34.90
2022-08-30T23:31:36.063Z,34.90
2022-08-30T23:34:22.882Z,34.90
2022-08-30T23:37:09.941Z,34.90
2022-08-30T23:39:57.397Z,34.90
2022-08-30T23:42:44.334Z,35.00
2022-08-30T23:45:31.263Z,35.10
2022-08-30T23:48:17.861Z,35.10
2022-08-30T23:51:04.697Z,35.20
2022-08-30T23:53:51.839Z,35.20
2022-08-30T23:56:39.519Z,35.10
2022-08-30T23:59:26.427Z,35.20
